カーナーク/チューレ空軍基地 の空港の天気 - METARとTAF

チューレ空軍基地 ( BGTL / THU ) - グリーンランド カーナーク
飛行場実況気象(Metar)
観測時間08/11 01:56 ADT (08/11 04:56 UTC)
風向・風速南南東 5m/s 瞬間風速8m/s
視程10km以上
天気現象
なし
気温6.2℃
湿度55%
気圧1003.7hPa
METARBGTL 110456Z AUTO 15009G15KT 9999 CLR 06/M02 A2969 RMK AO2 SLP037 T00621022 TSNO $
過去の天気等 Google飛行場航空写真 Wunderground天気予報

過去48時間のMETAR

飛行場予報(TAF)
データがありません